createdAt,value
2023-11-25T00:00:55.795Z,6.55
2023-11-25T00:03:38.786Z,6.52
2023-11-25T00:06:06.328Z,6.55
2023-11-25T00:08:33.637Z,6.51
2023-11-25T00:11:00.460Z,6.52
2023-11-25T00:13:27.612Z,6.50
2023-11-25T00:15:56.085Z,6.49
2023-11-25T00:18:24.026Z,6.50
2023-11-25T00:20:50.889Z,6.48
2023-11-25T00:23:19.221Z,6.49
2023-11-25T00:25:46.236Z,6.50
2023-11-25T00:28:13.462Z,6.45
2023-11-25T00:30:40.421Z,6.45
2023-11-25T00:33:07.751Z,6.47
2023-11-25T00:35:34.583Z,6.43
2023-11-25T00:38:02.024Z,6.47
2023-11-25T00:40:29.834Z,6.47
2023-11-25T00:42:58.084Z,6.43
2023-11-25T00:45:27.834Z,6.46
2023-11-25T00:47:57.869Z,6.49
2023-11-25T00:50:26.199Z,6.40
2023-11-25T00:52:53.497Z,6.45
2023-11-25T00:55:21.847Z,6.41
2023-11-25T00:57:49.113Z,6.44
2023-11-25T01:00:23.627Z,6.46
2023-11-25T01:02:51.568Z,6.42
2023-11-25T01:05:18.582Z,6.39
2023-11-25T01:07:46.142Z,6.44
2023-11-25T01:10:13.015Z,6.44
2023-11-25T01:12:40.216Z,6.43
2023-11-25T01:15:08.516Z,6.43
2023-11-25T01:17:35.774Z,6.44
2023-11-25T01:20:02.774Z,6.43
2023-11-25T01:22:30.007Z,6.44
2023-11-25T01:24:57.579Z,6.42
2023-11-25T01:27:25.100Z,6.45
2023-11-25T01:29:52.846Z,6.40
2023-11-25T01:32:21.402Z,6.38
2023-11-25T01:34:48.519Z,6.37
2023-11-25T01:37:18.970Z,6.37
2023-11-25T01:39:46.648Z,6.41
2023-11-25T01:42:13.782Z,6.45
2023-11-25T01:44:40.589Z,6.38
2023-11-25T01:47:07.886Z,6.37
2023-11-25T01:49:35.995Z,6.38
2023-11-25T01:52:03.192Z,6.39
2023-11-25T01:54:29.998Z,6.37
2023-11-25T01:56:57.586Z,6.37
2023-11-25T01:59:24.412Z,6.43
2023-11-25T02:01:51.912Z,6.41
2023-11-25T02:04:19.347Z,6.44
2023-11-25T02:06:46.906Z,6.43
2023-11-25T02:09:14.442Z,6.42
2023-11-25T02:12:00.617Z,6.45
2023-11-25T02:14:28.137Z,6.44
2023-11-25T02:16:57.131Z,6.42
2023-11-25T02:19:27.382Z,6.44
2023-11-25T02:21:54.756Z,6.43
2023-11-25T02:24:23.212Z,6.44
2023-11-25T02:27:00.658Z,6.44
2023-11-25T02:29:28.057Z,6.44
2023-11-25T02:31:55.273Z,6.46
2023-11-25T02:34:22.187Z,6.44
2023-11-25T02:36:49.868Z,6.46
2023-11-25T02:39:19.273Z,6.45
2023-11-25T02:41:51.132Z,6.44
2023-11-25T02:44:18.503Z,6.42
2023-11-25T02:46:52.050Z,6.46
2023-11-25T02:49:19.037Z,6.47
2023-11-25T02:51:53.053Z,6.42
2023-11-25T02:54:20.524Z,6.41
2023-11-25T02:56:47.675Z,6.46
2023-11-25T02:59:14.488Z,6.43
2023-11-25T03:01:50.387Z,6.42
2023-11-25T03:04:18.172Z,6.44
2023-11-25T03:06:46.806Z,6.44
2023-11-25T03:09:14.919Z,6.43
2023-11-25T03:11:42.118Z,6.40
2023-11-25T03:14:09.101Z,6.40
2023-11-25T03:16:36.927Z,6.43
2023-11-25T03:19:04.283Z,6.42
2023-11-25T03:21:32.386Z,6.42
2023-11-25T03:24:00.592Z,6.41
2023-11-25T03:26:29.259Z,6.43
2023-11-25T03:28:56.103Z,6.41
2023-11-25T03:31:24.662Z,6.39
2023-11-25T03:33:51.896Z,6.39
2023-11-25T03:36:18.972Z,6.41
2023-11-25T03:38:45.805Z,6.42
2023-11-25T03:41:13.964Z,6.39
2023-11-25T03:43:40.969Z,6.40
2023-11-25T03:46:08.663Z,6.35
2023-11-25T03:48:36.078Z,6.40
2023-11-25T03:51:03.425Z,6.39
2023-11-25T03:53:31.470Z,6.41
2023-11-25T03:56:01.109Z,6.43
2023-11-25T03:58:27.958Z,6.39
2023-11-25T04:00:56.503Z,6.37
2023-11-25T04:03:23.289Z,6.39
2023-11-25T04:05:50.653Z,6.39
2023-11-25T04:08:17.509Z,6.30
2023-11-25T04:10:44.630Z,6.32
2023-11-25T04:13:11.446Z,6.25
2023-11-25T04:15:38.653Z,6.31
2023-11-25T04:18:05.531Z,6.35
2023-11-25T04:20:34.801Z,6.34
2023-11-25T04:23:11.809Z,6.29
2023-11-25T04:25:39.174Z,6.31
2023-11-25T04:28:07.914Z,6.26
2023-11-25T04:30:35.734Z,6.23
2023-11-25T04:33:02.647Z,6.24
2023-11-25T04:35:29.818Z,6.21
2023-11-25T04:37:56.628Z,6.26
2023-11-25T04:40:24.008Z,6.25
2023-11-25T04:42:50.799Z,6.27
2023-11-25T04:45:18.629Z,6.22
2023-11-25T04:47:46.480Z,6.26
2023-11-25T04:50:14.188Z,6.22
2023-11-25T04:52:41.461Z,6.22
2023-11-25T04:55:10.236Z,6.26
2023-11-25T04:57:37.564Z,6.19
2023-11-25T05:00:12.098Z,6.22
2023-11-25T05:02:39.660Z,6.20
2023-11-25T05:05:07.418Z,6.18
2023-11-25T05:07:34.605Z,6.18
2023-11-25T05:10:02.017Z,6.21
2023-11-25T05:12:29.313Z,6.25
2023-11-25T05:14:56.520Z,6.25
2023-11-25T05:17:23.593Z,6.19
2023-11-25T05:19:50.894Z,6.15
2023-11-25T05:22:17.699Z,6.19
2023-11-25T05:24:44.863Z,6.23
2023-11-25T05:27:11.662Z,6.23
2023-11-25T05:29:38.764Z,6.27
2023-11-25T05:32:07.922Z,6.25
2023-11-25T05:34:35.657Z,6.25
2023-11-25T05:37:02.769Z,6.31
2023-11-25T05:39:29.894Z,6.28
2023-11-25T05:41:56.733Z,6.26
2023-11-25T05:44:26.503Z,6.24
2023-11-25T05:46:56.468Z,6.20
2023-11-25T05:49:23.747Z,6.04
2023-11-25T05:51:52.231Z,6.10
2023-11-25T05:54:19.670Z,6.06
2023-11-25T05:56:47.022Z,6.02
2023-11-25T05:59:14.277Z,6.08
2023-11-25T06:01:42.049Z,6.04
2023-11-25T06:04:09.314Z,6.04
2023-11-25T06:06:36.177Z,6.04
2023-11-25T06:09:03.870Z,6.05
2023-11-25T06:11:34.081Z,6.08
2023-11-25T06:14:01.248Z,6.02
2023-11-25T06:16:28.216Z,6.08
2023-11-25T06:18:58.114Z,5.97
2023-11-25T06:21:25.092Z,5.98
2023-11-25T06:23:52.232Z,6.02
2023-11-25T06:26:20.446Z,6.03
2023-11-25T06:28:48.531Z,5.97
2023-11-25T06:31:16.476Z,5.92
2023-11-25T06:33:43.905Z,5.94
2023-11-25T06:36:11.695Z,5.89
2023-11-25T06:38:39.724Z,5.97
2023-11-25T06:41:08.453Z,5.94
2023-11-25T06:43:35.761Z,6.01
2023-11-25T06:46:03.618Z,5.94
2023-11-25T06:48:33.508Z,6.01
2023-11-25T06:51:00.759Z,5.99
2023-11-25T06:53:30.244Z,6.04
2023-11-25T06:56:00.536Z,6.06
2023-11-25T06:58:29.291Z,6.04
2023-11-25T07:00:58.961Z,6.05
2023-11-25T07:03:26.316Z,6.03
2023-11-25T07:05:53.193Z,6.10
2023-11-25T07:08:20.319Z,5.99
2023-11-25T07:10:55.055Z,6.09
2023-11-25T07:13:23.134Z,6.08
2023-11-25T07:15:50.300Z,6.08
2023-11-25T07:18:20.241Z,6.07
2023-11-25T07:20:47.822Z,6.10
2023-11-25T07:23:16.254Z,6.10
2023-11-25T07:25:43.397Z,6.13
2023-11-25T07:28:11.024Z,6.08
2023-11-25T07:30:38.197Z,6.09
2023-11-25T07:33:05.453Z,6.09
2023-11-25T07:35:32.346Z,6.12
2023-11-25T07:37:59.491Z,6.05
2023-11-25T07:40:26.298Z,6.07
2023-11-25T07:42:53.462Z,6.09
2023-11-25T07:45:20.328Z,6.08
2023-11-25T07:47:47.595Z,6.19
2023-11-25T07:50:15.388Z,6.19
2023-11-25T07:52:42.886Z,6.15
2023-11-25T07:55:10.165Z,6.18
2023-11-25T07:57:38.402Z,6.13
2023-11-25T08:00:07.963Z,6.25
2023-11-25T08:02:35.207Z,6.23
2023-11-25T08:05:02.167Z,6.20
2023-11-25T08:07:29.429Z,6.18
2023-11-25T08:09:57.533Z,6.17
2023-11-25T08:12:24.682Z,6.13
2023-11-25T08:14:51.453Z,6.10
2023-11-25T08:17:18.576Z,6.08
2023-11-25T08:19:46.330Z,6.07
2023-11-25T08:22:13.620Z,6.06
2023-11-25T08:24:40.450Z,6.04
2023-11-25T08:27:07.527Z,6.14
2023-11-25T08:29:34.327Z,6.12
2023-11-25T08:32:02.349Z,6.12
2023-11-25T08:34:29.260Z,6.01
2023-11-25T08:36:56.675Z,6.08
2023-11-25T08:39:27.075Z,6.06
2023-11-25T08:41:54.632Z,6.08
2023-11-25T08:44:21.508Z,6.08
2023-11-25T08:46:49.610Z,6.04
2023-11-25T08:49:17.689Z,6.03
2023-11-25T08:51:47.885Z,6.01
2023-11-25T08:54:15.239Z,6.09
2023-11-25T08:56:45.302Z,5.97
2023-11-25T08:59:19.089Z,6.04
2023-11-25T09:01:47.781Z,6.05
2023-11-25T09:04:20.605Z,6.05
2023-11-25T09:06:48.537Z,6.01
2023-11-25T09:09:20.621Z,6.10
2023-11-25T09:11:49.361Z,6.07
2023-11-25T09:14:17.878Z,6.06
2023-11-25T09:16:45.427Z,6.05
2023-11-25T09:19:14.247Z,5.93
2023-11-25T09:21:42.556Z,6.04
2023-11-25T09:24:09.717Z,6.01
2023-11-25T09:26:38.087Z,6.06
2023-11-25T09:29:06.363Z,6.07
2023-11-25T09:31:34.129Z,5.99
2023-11-25T09:34:04.158Z,6.05
2023-11-25T09:36:31.625Z,6.07
2023-11-25T09:38:58.547Z,6.17
2023-11-25T09:41:26.844Z,6.23
2023-11-25T09:43:54.430Z,6.14
2023-11-25T09:46:21.788Z,6.19
2023-11-25T09:48:48.728Z,6.15
2023-11-25T09:51:16.516Z,6.15
2023-11-25T09:53:43.346Z,6.10
2023-11-25T09:56:12.055Z,6.21
2023-11-25T09:58:39.145Z,6.24
2023-11-25T10:01:13.374Z,6.13
2023-11-25T10:03:44.152Z,6.09
2023-11-25T10:06:12.380Z,6.13
2023-11-25T10:08:39.752Z,6.19
2023-11-25T10:11:09.193Z,6.19
2023-11-25T10:13:36.801Z,6.13
2023-11-25T10:16:04.457Z,6.15
2023-11-25T10:18:31.730Z,6.18
2023-11-25T10:20:59.383Z,6.12
2023-11-25T10:23:27.098Z,6.09
2023-11-25T10:25:54.526Z,6.14
2023-11-25T10:28:22.789Z,6.09
2023-11-25T10:31:00.738Z,6.13
2023-11-25T10:33:28.813Z,6.10
2023-11-25T10:35:56.285Z,6.08
2023-11-25T10:38:28.158Z,6.07
2023-11-25T10:41:00.344Z,6.12
2023-11-25T10:43:27.989Z,6.06
2023-11-25T10:46:10.168Z,6.16
2023-11-25T10:48:39.785Z,6.11
2023-11-25T10:51:10.052Z,6.14
2023-11-25T10:53:40.764Z,6.12
2023-11-25T10:56:08.573Z,6.22
2023-11-25T10:58:35.757Z,6.15
2023-11-25T11:01:03.009Z,6.13
2023-11-25T11:03:54.888Z,6.20
2023-11-25T11:06:23.868Z,6.15
2023-11-25T11:08:50.916Z,6.17
2023-11-25T11:11:38.976Z,6.21
2023-11-25T11:14:14.878Z,6.25
2023-11-25T11:16:48.528Z,6.16
2023-11-25T11:19:16.352Z,6.16
2023-11-25T11:21:44.801Z,6.17
2023-11-25T11:24:12.080Z,6.18
2023-11-25T11:26:59.418Z,6.13
2023-11-25T11:29:32.028Z,6.10
2023-11-25T11:32:08.602Z,6.12
2023-11-25T11:34:36.976Z,6.13
2023-11-25T11:37:06.250Z,6.13
2023-11-25T11:39:52.679Z,6.13
2023-11-25T11:42:30.525Z,6.13
2023-11-25T11:45:21.166Z,6.11
2023-11-25T11:47:51.961Z,6.07
2023-11-25T11:50:20.532Z,6.08
2023-11-25T11:53:13.836Z,6.10
2023-11-25T11:55:41.145Z,6.09
2023-11-25T11:58:11.252Z,6.05
2023-11-25T12:00:41.766Z,6.07
2023-11-25T12:03:11.825Z,6.09
2023-11-25T12:05:39.378Z,6.23
2023-11-25T12:08:09.417Z,6.41
2023-11-25T12:10:36.995Z,6.71
2023-11-25T12:13:04.466Z,6.75
2023-11-25T12:15:34.187Z,6.60
2023-11-25T12:18:02.372Z,6.48
2023-11-25T12:20:29.663Z,6.42
2023-11-25T12:22:57.436Z,6.35
2023-11-25T12:25:25.256Z,6.38
2023-11-25T12:27:59.810Z,6.35
2023-11-25T12:30:27.926Z,6.37
2023-11-25T12:32:55.179Z,6.39
2023-11-25T12:35:23.569Z,6.45
2023-11-25T12:38:04.510Z,6.50
2023-11-25T12:40:38.823Z,6.48
2023-11-25T12:43:09.637Z,6.45
2023-11-25T12:45:43.933Z,6.47
2023-11-25T12:48:13.520Z,6.47
2023-11-25T12:51:05.661Z,6.41
2023-11-25T12:53:33.167Z,6.39
2023-11-25T12:56:01.210Z,6.39
2023-11-25T12:58:30.205Z,6.35
2023-11-25T13:00:58.685Z,6.43
2023-11-25T13:03:27.349Z,6.35
2023-11-25T13:08:41.195Z,6.27
2023-11-25T13:11:12.091Z,6.26
2023-11-25T13:13:39.718Z,6.23
2023-11-25T13:16:10.153Z,6.24
2023-11-25T13:18:37.556Z,6.27
2023-11-25T13:21:08.054Z,6.26
2023-11-25T13:23:35.813Z,6.19
2023-11-25T13:26:03.335Z,6.23
2023-11-25T13:28:31.014Z,6.18
2023-11-25T13:30:57.905Z,6.24
2023-11-25T13:33:25.227Z,6.25
2023-11-25T13:35:52.394Z,6.27
2023-11-25T13:38:19.644Z,6.24
2023-11-25T13:40:46.712Z,6.25
2023-11-25T13:43:14.571Z,6.26
2023-11-25T13:45:42.748Z,6.26
2023-11-25T13:48:11.879Z,6.24
2023-11-25T13:50:39.240Z,6.23
2023-11-25T13:53:07.051Z,6.24
2023-11-25T13:55:43.422Z,6.26
2023-11-25T13:58:10.977Z,6.25
2023-11-25T14:00:38.465Z,6.23
2023-11-25T14:03:11.621Z,6.28
2023-11-25T14:05:43.086Z,6.31
2023-11-25T14:08:13.115Z,6.32
2023-11-25T14:10:41.323Z,6.30
2023-11-25T14:13:09.921Z,6.32
2023-11-25T14:15:36.797Z,6.23
2023-11-25T14:18:05.644Z,6.34
2023-11-25T14:20:32.570Z,6.32
2023-11-25T14:23:00.694Z,6.29
2023-11-25T14:25:27.715Z,6.32
2023-11-25T14:27:55.299Z,6.23
2023-11-25T14:30:29.754Z,6.27
2023-11-25T14:32:57.231Z,6.35
2023-11-25T14:35:24.233Z,6.31
2023-11-25T14:37:54.554Z,6.30
2023-11-25T14:40:24.970Z,6.28
2023-11-25T14:42:52.316Z,6.33
2023-11-25T14:45:19.248Z,6.31
2023-11-25T14:47:46.797Z,6.36
2023-11-25T14:50:14.261Z,6.31
2023-11-25T14:52:41.837Z,6.26
2023-11-25T14:55:12.734Z,6.27
2023-11-25T14:57:40.656Z,6.28
2023-11-25T15:00:10.109Z,6.29
2023-11-25T15:02:38.705Z,6.26
2023-11-25T15:05:06.142Z,6.26
2023-11-25T15:07:33.533Z,6.28
2023-11-25T15:10:00.432Z,6.30
2023-11-25T15:12:27.701Z,6.31
2023-11-25T15:14:55.787Z,6.27
2023-11-25T15:17:27.031Z,6.25
2023-11-25T15:19:54.105Z,6.22
2023-11-25T15:22:21.457Z,6.25
2023-11-25T15:24:48.759Z,6.25
2023-11-25T15:27:18.025Z,6.26
2023-11-25T15:30:02.147Z,6.23
2023-11-25T15:32:29.635Z,6.23
2023-11-25T15:34:57.381Z,6.22
2023-11-25T15:37:25.996Z,6.21
2023-11-25T15:39:53.658Z,6.21
2023-11-25T15:42:20.848Z,6.18
2023-11-25T15:44:47.923Z,6.13
2023-11-25T15:47:15.700Z,6.23
2023-11-25T15:49:42.653Z,6.18
2023-11-25T15:52:09.985Z,6.19
2023-11-25T15:54:36.942Z,6.12
2023-11-25T15:57:04.345Z,6.13
2023-11-25T15:59:31.381Z,6.11
2023-11-25T16:01:58.865Z,6.11
2023-11-25T16:04:25.978Z,6.12
2023-11-25T16:06:55.193Z,6.12
2023-11-25T16:09:22.357Z,6.13
2023-11-25T16:11:49.699Z,6.06
2023-11-25T16:14:16.595Z,6.08
2023-11-25T16:16:44.801Z,6.07
2023-11-25T16:19:12.074Z,6.06
2023-11-25T16:21:40.842Z,6.07
2023-11-25T16:24:09.189Z,6.05
2023-11-25T16:26:36.412Z,6.02
2023-11-25T16:29:04.709Z,6.04
2023-11-25T16:31:32.265Z,6.05
2023-11-25T16:33:59.264Z,6.11
2023-11-25T16:36:26.510Z,6.10
2023-11-25T16:38:53.365Z,6.12
2023-11-25T16:41:22.720Z,6.08
2023-11-25T16:43:49.582Z,6.07
2023-11-25T16:46:17.170Z,6.06
2023-11-25T16:48:51.742Z,6.05
2023-11-25T16:51:23.466Z,6.07
2023-11-25T16:53:50.369Z,6.02
2023-11-25T16:56:18.795Z,6.03
2023-11-25T16:58:46.827Z,6.02
2023-11-25T17:01:14.347Z,6.01
2023-11-25T17:03:41.361Z,6.02
2023-11-25T17:06:10.492Z,5.98
2023-11-25T17:08:37.454Z,5.98
2023-11-25T17:11:05.289Z,5.99
2023-11-25T17:13:32.364Z,6.03
2023-11-25T17:16:00.706Z,5.97
2023-11-25T17:18:27.612Z,5.92
2023-11-25T17:20:54.787Z,6.00
2023-11-25T17:23:21.669Z,6.03
2023-11-25T17:25:49.007Z,6.00
2023-11-25T17:28:15.879Z,6.04
2023-11-25T17:30:43.061Z,6.00
2023-11-25T17:33:13.854Z,5.98
2023-11-25T17:35:41.152Z,5.98
2023-11-25T17:38:08.404Z,5.97
2023-11-25T17:40:36.262Z,5.98
2023-11-25T17:43:03.148Z,5.95
2023-11-25T17:45:30.433Z,5.94
2023-11-25T17:47:57.339Z,5.93
2023-11-25T17:50:24.761Z,5.97
2023-11-25T17:52:57.853Z,5.98
2023-11-25T17:55:31.185Z,5.97
2023-11-25T17:57:58.231Z,5.94
2023-11-25T18:00:25.446Z,5.98
2023-11-25T18:02:52.399Z,5.95
2023-11-25T18:05:20.336Z,5.95
2023-11-25T18:07:50.814Z,5.97
2023-11-25T18:10:18.116Z,5.95
2023-11-25T18:12:46.032Z,5.97
2023-11-25T18:15:14.325Z,5.94
2023-11-25T18:17:42.352Z,5.94
2023-11-25T18:20:12.418Z,5.93
2023-11-25T18:22:42.347Z,5.95
2023-11-25T18:25:12.538Z,5.96
2023-11-25T18:27:39.766Z,5.95
2023-11-25T18:30:09.353Z,5.97
2023-11-25T18:32:36.596Z,5.92
2023-11-25T18:35:05.356Z,5.94
2023-11-25T18:37:32.335Z,5.94
2023-11-25T18:39:59.483Z,5.93
2023-11-25T18:42:28.612Z,5.93
2023-11-25T18:44:56.320Z,5.98
2023-11-25T18:47:23.322Z,5.94
2023-11-25T18:49:50.651Z,5.97
2023-11-25T18:52:17.677Z,5.95
2023-11-25T18:54:45.111Z,5.87
2023-11-25T18:57:12.055Z,5.89
2023-11-25T18:59:39.262Z,5.90
2023-11-25T19:02:07.802Z,5.96
2023-11-25T19:04:35.123Z,5.93
2023-11-25T19:07:02.009Z,5.95
2023-11-25T19:09:29.169Z,5.94
2023-11-25T19:11:57.019Z,5.90
2023-11-25T19:14:24.236Z,5.93
2023-11-25T19:16:51.318Z,5.98
2023-11-25T19:19:20.777Z,5.93
2023-11-25T19:21:47.690Z,5.97
2023-11-25T19:24:14.927Z,5.94
2023-11-25T19:26:42.197Z,5.91
2023-11-25T19:29:09.739Z,5.93
2023-11-25T19:31:36.776Z,5.95
2023-11-25T19:34:04.065Z,5.89
2023-11-25T19:36:30.903Z,5.91
2023-11-25T19:38:58.194Z,5.96
2023-11-25T19:41:25.655Z,5.93
2023-11-25T19:43:52.962Z,5.97
2023-11-25T19:46:19.865Z,5.92
2023-11-25T19:48:47.105Z,5.98
2023-11-25T19:51:14.012Z,5.91
2023-11-25T19:53:50.455Z,5.94
2023-11-25T19:56:20.180Z,5.94
2023-11-25T19:58:47.685Z,5.97
2023-11-25T20:01:15.855Z,6.02
2023-11-25T20:03:43.348Z,5.97
2023-11-25T20:06:10.262Z,5.98
2023-11-25T20:08:37.492Z,5.99
2023-11-25T20:11:04.865Z,5.97
2023-11-25T20:13:32.214Z,5.99
2023-11-25T20:15:59.601Z,6.00
2023-11-25T20:18:27.404Z,5.98
2023-11-25T20:20:54.302Z,5.97
2023-11-25T20:23:23.260Z,5.99
2023-11-25T20:25:50.242Z,5.92
2023-11-25T20:28:17.969Z,5.98
2023-11-25T20:30:44.913Z,5.94
2023-11-25T20:33:12.209Z,5.95
2023-11-25T20:35:39.215Z,5.92
2023-11-25T20:38:06.534Z,5.94
2023-11-25T20:40:34.314Z,5.96
2023-11-25T20:43:01.514Z,5.97
2023-11-25T20:45:28.432Z,5.97
2023-11-25T20:47:55.680Z,5.97
2023-11-25T20:50:23.479Z,5.95
2023-11-25T20:52:50.825Z,6.00
2023-11-25T20:55:17.922Z,6.00
2023-11-25T20:57:45.178Z,6.02
2023-11-25T21:00:13.384Z,5.97
2023-11-25T21:02:41.370Z,5.97
2023-11-25T21:05:08.521Z,5.99
2023-11-25T21:07:35.712Z,5.99
2023-11-25T21:10:02.720Z,5.95
2023-11-25T21:12:30.011Z,5.98
2023-11-25T21:14:57.013Z,5.98
2023-11-25T21:17:24.246Z,5.99
2023-11-25T21:19:51.197Z,5.95
2023-11-25T21:22:19.071Z,5.98
2023-11-25T21:24:45.910Z,6.01
2023-11-25T21:27:13.275Z,6.00
2023-11-25T21:29:40.189Z,6.02
2023-11-25T21:32:09.696Z,5.97
2023-11-25T21:34:37.035Z,5.95
2023-11-25T21:37:05.541Z,5.97
2023-11-25T21:39:32.755Z,5.99
2023-11-25T21:42:00.152Z,5.93
2023-11-25T21:44:27.401Z,5.94
2023-11-25T21:46:54.699Z,5.94
2023-11-25T21:49:21.565Z,5.95
2023-11-25T21:51:48.985Z,5.97
2023-11-25T21:54:15.859Z,6.00
2023-11-25T21:56:43.005Z,5.97
2023-11-25T21:59:10.082Z,5.97
2023-11-25T22:01:37.349Z,5.98
2023-11-25T22:04:05.954Z,5.97
2023-11-25T22:06:33.247Z,6.00
2023-11-25T22:09:00.247Z,5.95
2023-11-25T22:11:27.720Z,5.98
2023-11-25T22:13:54.912Z,5.99
2023-11-25T22:16:22.279Z,5.99
2023-11-25T22:18:49.268Z,5.94
2023-11-25T22:21:22.870Z,5.98
2023-11-25T22:23:50.954Z,6.00
2023-11-25T22:26:27.634Z,5.96
2023-11-25T22:28:54.614Z,5.97
2023-11-25T22:31:22.528Z,5.99
2023-11-25T22:33:50.572Z,6.00
2023-11-25T22:36:24.625Z,6.00
2023-11-25T22:38:53.023Z,5.99
2023-11-25T22:41:20.939Z,6.01
2023-11-25T22:43:48.270Z,6.00
2023-11-25T22:46:22.670Z,6.00
2023-11-25T22:48:50.350Z,5.99
2023-11-25T22:51:17.733Z,6.00
2023-11-25T22:53:44.617Z,6.03
2023-11-25T22:56:11.941Z,5.99
2023-11-25T22:58:39.540Z,6.00
2023-11-25T23:01:06.734Z,5.98
2023-11-25T23:03:33.823Z,6.04
2023-11-25T23:06:01.163Z,5.98
2023-11-25T23:08:28.030Z,5.99
2023-11-25T23:10:56.720Z,6.02
2023-11-25T23:13:23.566Z,6.02
2023-11-25T23:15:50.712Z,6.04
2023-11-25T23:18:18.440Z,6.05
2023-11-25T23:20:45.897Z,5.99
2023-11-25T23:23:12.873Z,6.02
2023-11-25T23:25:40.170Z,5.98
2023-11-25T23:28:07.479Z,6.00
2023-11-25T23:30:34.634Z,6.01
2023-11-25T23:33:01.680Z,5.98
2023-11-25T23:35:28.952Z,6.02
2023-11-25T23:37:55.880Z,5.97
2023-11-25T23:40:23.381Z,5.98
2023-11-25T23:42:50.196Z,5.99
2023-11-25T23:45:17.326Z,5.97
2023-11-25T23:47:45.215Z,5.98
2023-11-25T23:50:12.697Z,6.00
2023-11-25T23:52:39.534Z,6.01
2023-11-25T23:55:06.957Z,6.00
2023-11-25T23:57:33.872Z,5.99
